Time;durP1;ratioP1;P1;durP2;ratioP2;P2;SDS_P1;SDS_P2;PMS_P1;PMS_P2;Temp;Humidity;BMP_temperature;BMP_pressure;BME280_temperature;BME280_humidity;BME280_pressure;Samples;Min_cycle;Max_cycle;Signal;HPM_P1;HPM_P2
2022/10/20 00:00:39;;;;;;;2.42;1.52;;;;;;;;;;4990018;28;20506;-83
2022/10/20 00:03:05;;;;;;;3.15;1.73;;;;;;;;;;4973362;28;20057;-83
2022/10/20 00:05:30;;;;;;;3.50;1.67;;;;;;;;;;4973339;28;20026;-83
2022/10/20 00:07:55;;;;;;;2.63;1.60;;;;;;;;;;4989725;28;20031;-83
2022/10/20 00:10:21;;;;;;;2.53;1.70;;;;;;;;;;4991957;28;20542;-83
2022/10/20 00:12:46;;;;;;;3.38;1.77;;;;;;;;;;4978164;28;20474;-84
2022/10/20 00:15:12;;;;;;;2.67;1.77;;;;;;;;;;4974609;28;20047;-84
2022/10/20 00:17:37;;;;;;;3.33;2.00;;;;;;;;;;4973410;28;20113;-84
2022/10/20 00:20:03;;;;;;;3.10;1.60;;;;;;;;;;4973165;28;20058;-83
2022/10/20 00:22:30;;;;;;;3.47;1.70;;;;;;;;;;4989404;28;20031;-82
2022/10/20 00:24:55;;;;;;;3.22;1.60;;;;;;;;;;4989214;28;20030;-84
2022/10/20 00:27:21;;;;;;;2.17;1.65;;;;;;;;;;4989404;28;20037;-84
2022/10/20 00:29:47;;;;;;;2.65;1.50;;;;;;;;;;4973219;28;20495;-84
2022/10/20 00:32:12;;;;;;;5.13;1.70;;;;;;;;;;4972935;28;20042;-84
2022/10/20 00:34:38;;;;;;;2.00;1.70;;;;;;;;;;4989534;28;20026;-84
2022/10/20 00:37:03;;;;;;;5.32;1.88;;;;;;;;;;4989376;28;20030;-84
2022/10/20 00:39:29;;;;;;;3.90;1.75;;;;;;;;;;4988945;28;20058;-84
2022/10/20 00:41:54;;;;;;;3.17;1.83;;;;;;;;;;4974047;28;20035;-83
2022/10/20 00:44:49;;;;;;;2.10;1.45;;;;;;;;;;4974058;28;20037;-84
2022/10/20 00:47:18;;;;;;;1.63;1.50;;;;;;;;;;4972749;28;20117;-83
2022/10/20 00:49:44;;;;;;;4.13;1.65;;;;;;;;;;4988891;28;20129;-83
2022/10/20 00:52:10;;;;;;;2.08;1.48;;;;;;;;;;4988955;28;20568;-83
2022/10/20 00:54:36;;;;;;;1.95;1.65;;;;;;;;;;4989242;28;20062;-83
2022/10/20 00:57:01;;;;;;;2.38;1.77;;;;;;;;;;4988595;28;20047;-83
2022/10/20 00:59:33;;;;;;;2.22;1.98;;;;;;;;;;4988942;28;20045;-83
2022/10/20 01:02:00;;;;;;;3.22;1.73;;;;;;;;;;4972616;28;20133;-82
2022/10/20 01:04:28;;;;;;;4.82;1.90;;;;;;;;;;4988958;28;20030;-83
2022/10/20 01:06:54;;;;;;;5.75;1.70;;;;;;;;;;4989045;28;20358;-83
2022/10/20 01:09:20;;;;;;;2.47;1.60;;;;;;;;;;4973824;28;20030;-83
2022/10/20 01:12:01;;;;;;;2.22;1.70;;;;;;;;;;4972877;28;20046;-83
2022/10/20 01:14:26;;;;;;;2.38;1.63;;;;;;;;;;4973437;28;20386;-83
2022/10/20 01:17:01;;;;;;;4.03;1.90;;;;;;;;;;4973901;28;20031;-83
2022/10/20 01:19:58;;;;;;;1.60;1.50;;;;;;;;;;4988786;28;20452;-84
2022/10/20 01:23:00;;;;;;;3.78;2.05;;;;;;;;;;4978087;28;20129;-83
2022/10/20 01:25:49;;;;;;;3.78;1.73;;;;;;;;;;4976321;28;20031;-83
2022/10/20 01:28:42;;;;;;;2.20;1.70;;;;;;;;;;4976366;28;20117;-83
2022/10/20 01:31:31;;;;;;;4.40;1.52;;;;;;;;;;4980369;28;20050;-83
2022/10/20 01:34:09;;;;;;;2.45;1.77;;;;;;;;;;4992621;28;20023;-83
2022/10/20 01:36:44;;;;;;;4.07;1.88;;;;;;;;;;4976404;28;20030;-83
2022/10/20 01:39:19;;;;;;;2.65;1.80;;;;;;;;;;4992294;28;20019;-83
2022/10/20 01:41:55;;;;;;;1.95;1.75;;;;;;;;;;4992440;28;20031;-83
2022/10/20 01:44:22;;;;;;;4.05;1.90;;;;;;;;;;4992299;28;20434;-83
2022/10/20 01:46:47;;;;;;;3.00;1.80;;;;;;;;;;4975981;28;20026;-83
2022/10/20 01:49:13;;;;;;;3.30;1.58;;;;;;;;;;4977415;28;20038;-83
2022/10/20 01:51:39;;;;;;;2.78;1.73;;;;;;;;;;4977302;28;20051;-83
2022/10/20 01:54:04;;;;;;;2.78;1.98;;;;;;;;;;4975981;28;20039;-83
2022/10/20 01:56:43;;;;;;;3.58;1.70;;;;;;;;;;4992339;28;20136;-83
2022/10/20 01:59:39;;;;;;;2.15;1.70;;;;;;;;;;4975734;28;20027;-83
2022/10/20 02:02:05;;;;;;;2.05;1.70;;;;;;;;;;4979500;28;20038;-83
2022/10/20 02:04:50;;;;;;;2.60;1.60;;;;;;;;;;4977238;28;20104;-84
2022/10/20 02:07:24;;;;;;;3.55;2.03;;;;;;;;;;4991970;28;20042;-83
2022/10/20 02:09:49;;;;;;;;;;;;;;;;;;4992604;28;20023;-82
2022/10/20 02:12:25;;;;;;;2.72;1.83;;;;;;;;;;4975979;28;19914;-84
2022/10/20 02:14:51;;;;;;;2.55;1.60;;;;;;;;;;4975674;28;20454;-84
2022/10/20 02:17:18;;;;;;;2.13;1.77;;;;;;;;;;4991773;28;20049;-83
2022/10/20 02:19:45;;;;;;;2.58;1.85;;;;;;;;;;4976801;28;20029;-84
2022/10/20 02:22:13;;;;;;;3.85;1.95;;;;;;;;;;4992954;28;20397;-83
2022/10/20 02:24:40;;;;;;;2.78;1.77;;;;;;;;;;4977165;28;20126;-83
2022/10/20 02:27:28;;;;;;;2.90;1.90;;;;;;;;;;4975805;28;20173;-83
2022/10/20 02:29:58;;;;;;;3.35;2.05;;;;;;;;;;4975711;28;20026;-83
2022/10/20 02:32:24;;;;;;;4.20;2.08;;;;;;;;;;4974256;28;20114;-83
2022/10/20 02:34:49;;;;;;;3.72;2.38;;;;;;;;;;4976511;28;20394;-84
2022/10/20 02:37:15;;;;;;;3.13;1.90;;;;;;;;;;4976398;28;20138;-84
2022/10/20 02:39:40;;;;;;;6.85;2.03;;;;;;;;;;4975246;28;20609;-84
2022/10/20 02:42:06;;;;;;;2.72;1.77;;;;;;;;;;4976641;28;20031;-84
2022/10/20 02:44:31;;;;;;;3.25;2.05;;;;;;;;;;4974972;28;20058;-83
2022/10/20 02:46:56;;;;;;;2.60;1.90;;;;;;;;;;4976446;28;20053;-83
2022/10/20 02:49:23;;;;;;;3.22;1.75;;;;;;;;;;4991464;28;20389;-83
2022/10/20 02:51:49;;;;;;;1.83;1.65;;;;;;;;;;4990595;28;20057;-83
2022/10/20 02:54:14;;;;;;;3.75;1.70;;;;;;;;;;4976286;28;20482;-83
2022/10/20 02:56:40;;;;;;;2.72;1.73;;;;;;;;;;4990822;28;20130;-83
2022/10/20 02:59:05;;;;;;;2.42;2.08;;;;;;;;;;4974673;28;20027;-83
2022/10/20 03:01:30;;;;;;;3.08;2.17;;;;;;;;;;4974930;28;20041;-83
2022/10/20 03:03:58;;;;;;;3.90;2.03;;;;;;;;;;4990896;28;20034;-83
2022/10/20 03:06:24;;;;;;;2.58;1.60;;;;;;;;;;4976194;28;20113;-83
2022/10/20 03:08:49;;;;;;;3.85;1.98;;;;;;;;;;4976122;28;20445;-83
2022/10/20 03:11:14;;;;;;;3.05;1.70;;;;;;;;;;4990978;28;20039;-83
2022/10/20 03:13:40;;;;;;;2.03;1.70;;;;;;;;;;4974524;28;20031;-83
2022/10/20 03:16:05;;;;;;;1.85;1.63;;;;;;;;;;4975745;28;20035;-82
2022/10/20 03:18:31;;;;;;;2.25;1.85;;;;;;;;;;4974989;28;20038;-83
2022/10/20 03:20:56;;;;;;;5.40;2.08;;;;;;;;;;4990550;28;20031;-83
2022/10/20 03:23:21;;;;;;;2.78;1.70;;;;;;;;;;4975726;28;20050;-83
2022/10/20 03:25:47;;;;;;;2.70;1.80;;;;;;;;;;4958156;28;20118;-83
2022/10/20 03:28:13;;;;;;;3.78;1.75;;;;;;;;;;4974958;28;20322;-83
2022/10/20 03:30:38;;;;;;;3.60;2.05;;;;;;;;;;4990690;28;20446;-83
2022/10/20 03:33:03;;;;;;;2.10;1.88;;;;;;;;;;4990560;28;20054;-83
2022/10/20 03:35:29;;;;;;;3.88;1.90;;;;;;;;;;4990484;28;20102;-83
2022/10/20 03:37:54;;;;;;;3.65;1.90;;;;;;;;;;4973876;28;20035;-83
2022/10/20 03:40:20;;;;;;;1.98;1.75;;;;;;;;;;4974384;28;20038;-83
2022/10/20 03:42:45;;;;;;;2.88;1.90;;;;;;;;;;4975066;28;20355;-83
2022/10/20 03:45:10;;;;;;;2.70;1.83;;;;;;;;;;4975384;28;20031;-82
2022/10/20 03:47:36;;;;;;;2.17;1.80;;;;;;;;;;4990258;28;20027;-84
2022/10/20 03:50:02;;;;;;;2.75;1.95;;;;;;;;;;4975263;28;20118;-82
2022/10/20 03:52:27;;;;;;;2.17;1.83;;;;;;;;;;4973767;28;20040;-85
2022/10/20 03:54:53;;;;;;;2.53;1.92;;;;;;;;;;4973635;28;20031;-82
2022/10/20 03:57:19;;;;;;;2.25;2.03;;;;;;;;;;4974680;28;20058;-84
2022/10/20 03:59:45;;;;;;;3.20;1.80;;;;;;;;;;4989996;28;20109;-83
2022/10/20 04:02:34;;;;;;;3.60;1.75;;;;;;;;;;4973447;28;20102;-84
2022/10/20 04:05:00;;;;;;;3.80;1.95;;;;;;;;;;4989654;28;20019;-84
2022/10/20 04:07:25;;;;;;;3.90;1.92;;;;;;;;;;4957354;28;20478;-85
2022/10/20 04:09:51;;;;;;;5.50;2.00;;;;;;;;;;4973378;28;20054;-84
2022/10/20 04:12:16;;;;;;;6.63;1.88;;;;;;;;;;4973408;28;20150;-85
2022/10/20 04:14:41;;;;;;;9.30;2.35;;;;;;;;;;4989828;28;20026;-84
2022/10/20 04:17:07;;;;;;;6.25;2.10;;;;;;;;;;4973171;28;20030;-84
2022/10/20 04:19:32;;;;;;;12.13;2.47;;;;;;;;;;4989622;28;20030;-84
2022/10/20 04:21:57;;;;;;;4.38;2.38;;;;;;;;;;4975195;28;20052;-84
2022/10/20 04:24:23;;;;;;;5.75;2.20;;;;;;;;;;4989676;28;20038;-83
2022/10/20 04:26:48;;;;;;;10.07;3.03;;;;;;;;;;4989552;28;20034;-82
2022/10/20 04:29:14;;;;;;;13.75;2.95;;;;;;;;;;4973004;28;20117;-81
2022/10/20 04:31:39;;;;;;;9.63;2.88;;;;;;;;;;4972868;28;20053;-81
2022/10/20 04:34:04;;;;;;;6.78;3.13;;;;;;;;;;4974065;28;20496;-81
2022/10/20 04:36:30;;;;;;;8.95;2.80;;;;;;;;;;4990464;28;20077;-80
2022/10/20 04:38:56;;;;;;;6.13;3.15;;;;;;;;;;4989308;28;20031;-80
2022/10/20 04:41:21;;;;;;;10.88;3.20;;;;;;;;;;4989757;28;20035;-81
2022/10/20 04:43:51;;;;;;;10.05;3.60;;;;;;;;;;4989791;28;20041;-81
2022/10/20 04:46:16;;;;;;;9.98;3.60;;;;;;;;;;4973463;28;20441;-83
2022/10/20 04:48:43;;;;;;;10.55;3.55;;;;;;;;;;4975354;28;20031;-85
2022/10/20 04:51:10;;;;;;;11.95;4.00;;;;;;;;;;4990058;28;20058;-84
2022/10/20 04:53:36;;;;;;;13.60;4.20;;;;;;;;;;4975243;28;20113;-81
2022/10/20 04:56:03;;;;;;;15.45;4.35;;;;;;;;;;4989333;28;20078;-85
2022/10/20 04:58:28;;;;;;;17.65;4.55;;;;;;;;;;4973917;28;20505;-83
2022/10/20 05:00:53;;;;;;;13.40;4.07;;;;;;;;;;4989805;28;20062;-82
2022/10/20 05:03:19;;;;;;;13.00;4.45;;;;;;;;;;4957269;28;20039;-84
2022/10/20 05:05:46;;;;;;;15.40;4.30;;;;;;;;;;4989373;28;20094;-83
2022/10/20 05:08:11;;;;;;;11.85;3.78;;;;;;;;;;4957499;28;20019;-82
2022/10/20 05:10:37;;;;;;;9.10;3.80;;;;;;;;;;4973548;28;20442;-82
2022/10/20 05:13:02;;;;;;;11.18;3.80;;;;;;;;;;4990256;28;20030;-83
2022/10/20 05:15:27;;;;;;;12.02;3.90;;;;;;;;;;4975700;28;20117;-83
2022/10/20 05:17:53;;;;;;;12.35;4.45;;;;;;;;;;4986153;28;20035;-81
2022/10/20 05:20:18;;;;;;;9.35;3.80;;;;;;;;;;5006675;28;20027;-82
2022/10/20 05:22:43;;;;;;;8.32;3.60;;;;;;;;;;4996518;28;20065;-82
2022/10/20 05:25:09;;;;;;;8.40;3.40;;;;;;;;;;4974425;28;20023;-82
2022/10/20 05:27:34;;;;;;;12.10;3.20;;;;;;;;;;4974393;28;20089;-82
2022/10/20 05:30:01;;;;;;;8.77;3.33;;;;;;;;;;4974517;28;20038;-82
2022/10/20 05:32:27;;;;;;;7.47;3.40;;;;;;;;;;4988867;28;20042;-81
2022/10/20 05:34:53;;;;;;;7.80;2.92;;;;;;;;;;4972932;28;20038;-83
2022/10/20 05:37:18;;;;;;;9.85;3.15;;;;;;;;;;4972595;28;20031;-82
2022/10/20 05:39:44;;;;;;;7.93;3.17;;;;;;;;;;4988544;28;20485;-82
2022/10/20 05:42:09;;;;;;;11.05;3.35;;;;;;;;;;4973915;28;20125;-82
2022/10/20 05:44:34;;;;;;;5.20;2.63;;;;;;;;;;4990008;28;20166;-82
2022/10/20 05:47:00;;;;;;;8.85;3.00;;;;;;;;;;4972671;28;20034;-82
2022/10/20 05:49:25;;;;;;;8.02;2.75;;;;;;;;;;4989902;28;20113;-81
2022/10/20 05:51:51;;;;;;;8.93;2.92;;;;;;;;;;4972910;28;20047;-82
2022/10/20 05:54:16;;;;;;;6.68;2.90;;;;;;;;;;4972576;28;20041;-81
2022/10/20 05:56:42;;;;;;;4.18;2.33;;;;;;;;;;4988681;28;20050;-81
2022/10/20 05:59:08;;;;;;;7.03;2.88;;;;;;;;;;4989289;28;20117;-81
2022/10/20 06:01:49;;;;;;;5.25;2.67;;;;;;;;;;4972476;28;20126;-82
2022/10/20 06:04:17;;;;;;;5.05;2.80;;;;;;;;;;4986593;28;20023;-82
2022/10/20 06:06:43;;;;;;;6.35;3.00;;;;;;;;;;4992133;28;20038;-83
2022/10/20 06:09:09;;;;;;;5.43;2.70;;;;;;;;;;4977922;28;20441;-82
2022/10/20 06:11:36;;;;;;;5.80;2.70;;;;;;;;;;4978737;28;20481;-82
2022/10/20 06:14:02;;;;;;;4.80;2.90;;;;;;;;;;4977156;28;20035;-81
2022/10/20 06:16:28;;;;;;;5.82;2.80;;;;;;;;;;4976910;28;20437;-84
2022/10/20 06:18:56;;;;;;;5.18;3.13;;;;;;;;;;4977404;28;20082;-82
2022/10/20 06:21:23;;;;;;;6.13;2.50;;;;;;;;;;4993040;28;20092;-81
2022/10/20 06:23:49;;;;;;;3.85;2.70;;;;;;;;;;4992513;28;20420;-81
2022/10/20 06:26:20;;;;;;;4.05;2.72;;;;;;;;;;4993730;28;20026;-81
2022/10/20 06:28:49;;;;;;;4.47;2.70;;;;;;;;;;4976137;28;20074;-81
2022/10/20 06:31:23;;;;;;;5.10;2.70;;;;;;;;;;4993465;28;20560;-81
2022/10/20 06:33:49;;;;;;;3.67;2.53;;;;;;;;;;4978441;28;20045;-81
2022/10/20 06:36:15;;;;;;;7.13;2.72;;;;;;;;;;4993300;28;20366;-82
2022/10/20 06:38:41;;;;;;;5.25;2.50;;;;;;;;;;4993422;28;20110;-81
2022/10/20 06:41:12;;;;;;;4.00;2.40;;;;;;;;;;4993810;28;20157;-81
2022/10/20 06:43:38;;;;;;;2.35;1.98;;;;;;;;;;4978222;28;20026;-81
2022/10/20 06:46:05;;;;;;;3.22;2.63;;;;;;;;;;4996448;28;20466;-82
2022/10/20 06:48:32;;;;;;;4.32;2.47;;;;;;;;;;4994881;28;20031;-81
2022/10/20 06:51:03;;;;;;;6.05;2.80;;;;;;;;;;4992934;28;20042;-81
2022/10/20 06:53:29;;;;;;;5.55;3.10;;;;;;;;;;4976388;28;20473;-81
2022/10/20 06:56:05;;;;;;;3.67;2.33;;;;;;;;;;4992222;28;20058;-81
2022/10/20 06:58:33;;;;;;;2.78;2.40;;;;;;;;;;4976742;28;20109;-81
2022/10/20 07:00:59;;;;;;;4.85;2.63;;;;;;;;;;4991594;28;20057;-81
2022/10/20 07:03:25;;;;;;;3.75;2.60;;;;;;;;;;4991506;28;20037;-81
2022/10/20 07:05:50;;;;;;;4.18;2.60;;;;;;;;;;4975107;28;20121;-81
2022/10/20 07:08:16;;;;;;;3.65;2.38;;;;;;;;;;4974748;28;20061;-82
2022/10/20 07:10:41;;;;;;;6.70;2.58;;;;;;;;;;4990785;28;20119;-82
2022/10/20 07:13:06;;;;;;;5.65;2.60;;;;;;;;;;4958719;28;20027;-81
2022/10/20 07:15:32;;;;;;;3.67;2.50;;;;;;;;;;4975850;28;20470;-82
2022/10/20 07:17:57;;;;;;;6.10;2.92;;;;;;;;;;4990052;28;20042;-82
2022/10/20 07:20:22;;;;;;;3.03;2.70;;;;;;;;;;4974380;28;20031;-82
2022/10/20 07:22:48;;;;;;;4.57;2.45;;;;;;;;;;4990772;28;20031;-82
2022/10/20 07:25:13;;;;;;;3.70;2.78;;;;;;;;;;4975868;28;20039;-82
2022/10/20 07:27:39;;;;;;;4.28;2.70;;;;;;;;;;4976088;28;20023;-82
2022/10/20 07:30:04;;;;;;;5.93;2.78;;;;;;;;;;4991318;28;20035;-81
2022/10/20 07:32:30;;;;;;;4.68;2.88;;;;;;;;;;4974613;28;20041;-82
2022/10/20 07:34:55;;;;;;;3.45;2.47;;;;;;;;;;4974490;28;20031;-83
2022/10/20 07:37:20;;;;;;;3.30;2.33;;;;;;;;;;4991043;28;20377;-82
2022/10/20 07:39:46;;;;;;;7.07;3.05;;;;;;;;;;4975647;28;20035;-81
2022/10/20 07:42:11;;;;;;;5.32;2.50;;;;;;;;;;4991077;28;20034;-81
2022/10/20 07:44:36;;;;;;;8.07;2.70;;;;;;;;;;4990897;28;20122;-81
2022/10/20 07:47:02;;;;;;;3.08;2.67;;;;;;;;;;4974687;28;20039;-81
2022/10/20 07:49:27;;;;;;;4.13;2.72;;;;;;;;;;4991269;28;20390;-81
2022/10/20 07:51:52;;;;;;;3.28;2.35;;;;;;;;;;4976079;28;20038;-81
2022/10/20 07:54:18;;;;;;;4.47;2.60;;;;;;;;;;4976233;28;20046;-81
2022/10/20 07:56:44;;;;;;;3.17;2.20;;;;;;;;;;4974341;28;20047;-81
2022/10/20 07:59:11;;;;;;;4.70;3.13;;;;;;;;;;4975496;28;20478;-81
2022/10/20 08:01:36;;;;;;;5.68;3.25;;;;;;;;;;4975313;28;20026;-82
2022/10/20 08:04:02;;;;;;;6.15;3.03;;;;;;;;;;4975222;28;20031;-82
2022/10/20 08:06:28;;;;;;;3.70;2.70;;;;;;;;;;4973869;28;20101;-81
2022/10/20 08:08:53;;;;;;;5.03;3.00;;;;;;;;;;4975784;28;20482;-82
2022/10/20 08:11:19;;;;;;;5.20;2.83;;;;;;;;;;4990553;28;20059;-82
2022/10/20 08:13:44;;;;;;;4.07;2.95;;;;;;;;;;4990555;28;20035;-82
2022/10/20 08:16:11;;;;;;;6.13;2.95;;;;;;;;;;4974010;28;20023;-82
2022/10/20 08:18:37;;;;;;;3.33;2.63;;;;;;;;;;4974301;28;20134;-82
2022/10/20 08:21:11;;;;;;;3.30;2.72;;;;;;;;;;4990800;28;20062;-82
2022/10/20 08:23:38;;;;;;;4.43;2.60;;;;;;;;;;4989783;28;20038;-82
2022/10/20 08:26:03;;;;;;;4.72;3.28;;;;;;;;;;4990854;28;20393;-81
2022/10/20 08:28:28;;;;;;;5.97;2.97;;;;;;;;;;4989870;28;20027;-82
2022/10/20 08:30:54;;;;;;;3.65;2.55;;;;;;;;;;4974596;28;20114;-82
2022/10/20 08:33:19;;;;;;;3.60;2.70;;;;;;;;;;4974672;28;20501;-82
2022/10/20 08:35:44;;;;;;;4.28;3.05;;;;;;;;;;4974451;28;20026;-82
2022/10/20 08:38:10;;;;;;;5.32;3.20;;;;;;;;;;4973043;28;20035;-82
2022/10/20 08:40:36;;;;;;;5.68;3.38;;;;;;;;;;4974495;28;20035;-82
2022/10/20 08:43:01;;;;;;;5.15;3.10;;;;;;;;;;4974621;28;20027;-82
2022/10/20 08:45:28;;;;;;;4.90;3.25;;;;;;;;;;4972874;28;20039;-82
2022/10/20 08:47:55;;;;;;;6.40;3.33;;;;;;;;;;4972856;28;20073;-81
2022/10/20 08:50:22;;;;;;;6.03;3.20;;;;;;;;;;4989418;28;20031;-82
2022/10/20 08:52:53;;;;;;;4.35;3.08;;;;;;;;;;4974559;28;20038;-82
2022/10/20 08:55:28;;;;;;;5.45;3.40;;;;;;;;;;4989744;28;20034;-82
2022/10/20 08:58:03;;;;;;;4.63;3.55;;;;;;;;;;4973504;28;20047;-81
2022/10/20 09:00:32;;;;;;;4.28;3.20;;;;;;;;;;4973484;28;20074;-82
2022/10/20 09:03:12;;;;;;;4.40;3.63;;;;;;;;;;4989132;28;20038;-82
2022/10/20 09:05:40;;;;;;;4.70;3.40;;;;;;;;;;4989304;28;20022;-81
2022/10/20 09:08:06;;;;;;;3.72;3.00;;;;;;;;;;4973553;28;20466;-82
2022/10/20 09:10:37;;;;;;;7.97;3.20;;;;;;;;;;4974371;28;20161;-81
2022/10/20 09:13:10;;;;;;;4.55;3.60;;;;;;;;;;4973649;28;20030;-82
2022/10/20 09:15:36;;;;;;;3.88;3.00;;;;;;;;;;4990879;28;20077;-84
2022/10/20 09:18:08;;;;;;;7.18;3.47;;;;;;;;;;4974786;28;20027;-83
2022/10/20 09:20:57;;;;;;;3.65;2.90;;;;;;;;;;4974569;28;20478;-82
2022/10/20 09:23:42;;;;;;;3.55;2.92;;;;;;;;;;4990327;28;20031;-81
2022/10/20 09:26:15;;;;;;;4.43;2.90;;;;;;;;;;4991664;28;20023;-81
2022/10/20 09:28:41;;;;;;;4.93;3.03;;;;;;;;;;4991046;28;20106;-81
2022/10/20 09:31:23;;;;;;;4.25;3.20;;;;;;;;;;4990178;28;20031;-81
2022/10/20 09:33:49;;;;;;;3.40;2.97;;;;;;;;;;4973783;28;20030;-81
2022/10/20 09:36:17;;;;;;;5.20;3.00;;;;;;;;;;4973878;28;20336;-81
2022/10/20 09:38:45;;;;;;;3.88;2.78;;;;;;;;;;4990033;28;20030;-82
2022/10/20 09:41:16;;;;;;;4.45;2.78;;;;;;;;;;4991280;28;20050;-81
2022/10/20 09:43:54;;;;;;;3.83;3.20;;;;;;;;;;4993730;28;20033;-81
2022/10/20 09:46:45;;;;;;;7.75;3.30;;;;;;;;;;4993051;28;20029;-81
2022/10/20 09:49:29;;;;;;;4.80;3.13;;;;;;;;;;4977623;28;20023;-82
2022/10/20 09:51:55;;;;;;;3.40;3.00;;;;;;;;;;4992444;28;20161;-81
2022/10/20 09:54:23;;;;;;;3.33;2.88;;;;;;;;;;4992632;28;20521;-82
2022/10/20 09:56:49;;;;;;;5.10;3.22;;;;;;;;;;4977334;28;20058;-82
2022/10/20 09:59:40;;;;;;;9.05;3.33;;;;;;;;;;4975917;28;20035;-83
2022/10/20 10:02:15;;;;;;;3.63;3.00;;;;;;;;;;4992363;28;20039;-83
2022/10/20 10:04:43;;;;;;;4.70;3.50;;;;;;;;;;4977660;28;20027;-82
2022/10/20 10:07:20;;;;;;;5.43;3.00;;;;;;;;;;4992474;28;20513;-82
2022/10/20 10:10:19;;;;;;;4.38;3.40;;;;;;;;;;4976947;28;20031;-83
2022/10/20 10:12:52;;;;;;;6.35;3.67;;;;;;;;;;4976938;28;20494;-82
2022/10/20 10:15:29;;;;;;;6.38;3.20;;;;;;;;;;4991930;28;20114;-82
2022/10/20 10:17:55;;;;;;;5.13;3.10;;;;;;;;;;4991527;28;20097;-82
2022/10/20 10:20:21;;;;;;;4.25;3.25;;;;;;;;;;4975582;28;20113;-81
2022/10/20 10:22:47;;;;;;;4.35;2.63;;;;;;;;;;4975727;28;20141;-82
2022/10/20 10:25:20;;;;;;;5.30;3.38;;;;;;;;;;4991824;28;20026;-82
2022/10/20 10:28:03;;;;;;;7.00;3.47;;;;;;;;;;4977844;28;20118;-83
2022/10/20 10:30:36;;;;;;;5.88;3.13;;;;;;;;;;4991514;28;20088;-82
2022/10/20 10:33:36;;;;;;;7.78;3.28;;;;;;;;;;4959530;28;20034;-82
2022/10/20 10:36:05;;;;;;;5.53;3.55;;;;;;;;;;4977685;28;20043;-81
2022/10/20 10:38:31;;;;;;;3.95;3.00;;;;;;;;;;4991622;28;20029;-81
2022/10/20 10:41:17;;;;;;;8.32;3.47;;;;;;;;;;4975376;28;20056;-81
2022/10/20 10:43:59;;;;;;;5.13;3.13;;;;;;;;;;4991814;28;20125;-81
2022/10/20 10:46:35;;;;;;;10.57;3.60;;;;;;;;;;4975473;28;20098;-81
2022/10/20 10:49:13;;;;;;;5.18;3.72;;;;;;;;;;4959458;28;20034;-82
2022/10/20 10:51:41;;;;;;;2.95;2.50;;;;;;;;;;4976418;28;20042;-82
2022/10/20 10:54:45;;;;;;;7.78;3.70;;;;;;;;;;4973781;28;20027;-82
2022/10/20 10:57:43;;;;;;;6.30;3.17;;;;;;;;;;4974357;28;20461;-82
2022/10/20 11:00:19;;;;;;;5.05;2.47;;;;;;;;;;4991055;28;20105;-81
2022/10/20 11:02:59;;;;;;;3.88;3.47;;;;;;;;;;4991247;28;20046;-82
2022/10/20 11:05:45;;;;;;;5.88;2.88;;;;;;;;;;4991860;28;20054;-82
2022/10/20 11:08:23;;;;;;;4.35;3.05;;;;;;;;;;4977734;28;20077;-81
2022/10/20 11:11:10;;;;;;;6.00;3.13;;;;;;;;;;4991091;28;20033;-83
2022/10/20 11:13:51;;;;;;;5.10;3.63;;;;;;;;;;4974737;28;20026;-83
2022/10/20 11:16:25;;;;;;;5.32;3.03;;;;;;;;;;4974712;28;20030;-82
2022/10/20 11:19:28;;;;;;;8.73;3.50;;;;;;;;;;4975876;28;20019;-83
2022/10/20 11:22:16;;;;;;;4.55;3.25;;;;;;;;;;4976064;28;20346;-82
2022/10/20 11:24:51;;;;;;;7.30;3.80;;;;;;;;;;4959513;28;20030;-82
2022/10/20 11:27:25;;;;;;;7.88;3.30;;;;;;;;;;4977435;28;20019;-82
2022/10/20 11:30:07;;;;;;;12.90;4.22;;;;;;;;;;4976181;28;20094;-82
2022/10/20 11:32:37;;;;;;;12.13;3.63;;;;;;;;;;4976814;28;20085;-82
2022/10/20 11:35:17;;;;;;;9.95;3.72;;;;;;;;;;4991252;28;20093;-82
2022/10/20 11:37:47;;;;;;;10.57;5.35;;;;;;;;;;4975279;28;20045;-82
2022/10/20 11:40:22;;;;;;;6.75;4.10;;;;;;;;;;4991256;28;20093;-83
2022/10/20 11:42:50;;;;;;;12.05;7.75;;;;;;;;;;4975385;28;20386;-81
2022/10/20 11:45:21;;;;;;;8.63;4.32;;;;;;;;;;4977597;28;20027;-82
2022/10/20 11:47:48;;;;;;;15.43;7.13;;;;;;;;;;4975608;28;20482;-82
2022/10/20 11:50:16;;;;;;;9.43;4.47;;;;;;;;;;4990875;28;20037;-82
2022/10/20 11:52:52;;;;;;;9.48;5.30;;;;;;;;;;4974750;28;20066;-83
2022/10/20 11:55:34;;;;;;;10.43;4.82;;;;;;;;;;4975713;28;20027;-82
2022/10/20 11:58:18;;;;;;;8.32;4.95;;;;;;;;;;4975157;28;20039;-83
2022/10/20 12:00:55;;;;;;;9.60;5.03;;;;;;;;;;4975274;28;20062;-82
2022/10/20 12:03:58;;;;;;;7.55;4.50;;;;;;;;;;4974802;28;20129;-82
2022/10/20 12:07:01;;;;;;;6.65;4.85;;;;;;;;;;4974871;28;20022;-82
2022/10/20 12:09:26;;;;;;;4.80;4.28;;;;;;;;;;4992403;28;20481;-82
2022/10/20 12:12:14;;;;;;;12.88;6.28;;;;;;;;;;4992378;28;20093;-82
2022/10/20 12:14:42;;;;;;;9.15;5.22;;;;;;;;;;4992302;28;20508;-83
2022/10/20 12:17:28;;;;;;;6.15;4.82;;;;;;;;;;4992453;28;20054;-82
2022/10/20 12:20:19;;;;;;;6.93;4.50;;;;;;;;;;4992476;28;20042;-82
2022/10/20 12:22:46;;;;;;;6.28;4.53;;;;;;;;;;4991727;28;20030;-81
2022/10/20 12:25:36;;;;;;;5.90;4.45;;;;;;;;;;4992093;28;20120;-82
2022/10/20 12:28:21;;;;;;;9.98;6.47;;;;;;;;;;4992575;28;20018;-82
2022/10/20 12:31:01;;;;;;;6.38;4.50;;;;;;;;;;4993271;28;20031;-82
2022/10/20 12:33:50;;;;;;;10.20;4.60;;;;;;;;;;4992574;28;20108;-81
2022/10/20 12:36:16;;;;;;;8.60;4.75;;;;;;;;;;4993404;28;20034;-80
2022/10/20 12:38:52;;;;;;;6.97;4.63;;;;;;;;;;4992890;28;20057;-81
2022/10/20 12:41:27;;;;;;;9.50;4.45;;;;;;;;;;4992170;28;20445;-80
2022/10/20 12:43:53;;;;;;;9.32;4.80;;;;;;;;;;4980485;28;20453;-80
2022/10/20 12:46:30;;;;;;;5.88;4.68;;;;;;;;;;4973769;28;20062;-81
2022/10/20 12:48:58;;;;;;;6.45;4.50;;;;;;;;;;4989398;28;20037;-80
2022/10/20 12:51:37;;;;;;;6.65;4.40;;;;;;;;;;4989408;28;20031;-82
2022/10/20 12:54:18;;;;;;;6.85;4.32;;;;;;;;;;4973812;28;20047;-81
2022/10/20 12:56:44;;;;;;;8.93;3.90;;;;;;;;;;4989380;28;20458;-81
2022/10/20 12:59:27;;;;;;;8.10;4.95;;;;;;;;;;4974312;28;20130;-81
2022/10/20 13:02:08;;;;;;;7.15;4.35;;;;;;;;;;4974886;28;20035;-82
2022/10/20 13:04:56;;;;;;;6.80;4.15;;;;;;;;;;4973295;28;20031;-82
2022/10/20 13:07:47;;;;;;;8.52;4.43;;;;;;;;;;4991296;28;20458;-81
2022/10/20 13:10:30;;;;;;;8.85;4.40;;;;;;;;;;4976745;28;20022;-81
2022/10/20 13:13:01;;;;;;;8.15;4.28;;;;;;;;;;4976492;28;20031;-83
2022/10/20 13:15:51;;;;;;;7.43;4.80;;;;;;;;;;4975384;28;20031;-82
2022/10/20 13:18:22;;;;;;;5.60;3.95;;;;;;;;;;4973541;28;20058;-82
2022/10/20 13:20:52;;;;;;;5.05;3.95;;;;;;;;;;4993405;28;20053;-82
2022/10/20 13:23:37;;;;;;;10.52;4.55;;;;;;;;;;4974991;28;20041;-82
2022/10/20 13:26:13;;;;;;;7.20;4.72;;;;;;;;;;4974547;28;20046;-82
2022/10/20 13:28:44;;;;;;;5.22;4.10;;;;;;;;;;4972774;28;20027;-82
2022/10/20 13:31:18;;;;;;;10.60;5.40;;;;;;;;;;4974027;28;20023;-81
2022/10/20 13:34:13;;;;;;;12.90;6.93;;;;;;;;;;4975261;28;20035;-82
2022/10/20 13:36:51;;;;;;;14.27;6.47;;;;;;;;;;4976633;28;20027;-82
2022/10/20 13:39:53;;;;;;;15.50;7.43;;;;;;;;;;4988962;28;20027;-83
2022/10/20 13:42:44;;;;;;;14.88;7.18;;;;;;;;;;4973705;28;20131;-82
2022/10/20 13:45:24;;;;;;;17.85;7.50;;;;;;;;;;4978529;28;20039;-83
2022/10/20 13:47:55;;;;;;;17.35;8.00;;;;;;;;;;4976313;28;20339;-82
2022/10/20 13:50:27;;;;;;;18.92;9.52;;;;;;;;;;4973624;28;20061;-82
2022/10/20 13:52:55;;;;;;;18.52;8.65;;;;;;;;;;4989323;28;20031;-82
2022/10/20 13:55:24;;;;;;;17.77;8.75;;;;;;;;;;4957205;28;20039;-83
2022/10/20 13:57:52;;;;;;;16.45;8.65;;;;;;;;;;4988959;28;20070;-83
2022/10/20 14:00:26;;;;;;;14.40;8.45;;;;;;;;;;4972812;28;20037;-83
2022/10/20 14:03:00;;;;;;;26.67;8.82;;;;;;;;;;4988787;28;20027;-81
2022/10/20 14:05:28;;;;;;;21.30;8.60;;;;;;;;;;4989000;28;20054;-81
2022/10/20 14:07:53;;;;;;;21.25;8.35;;;;;;;;;;4990842;28;20022;-82
2022/10/20 14:10:28;;;;;;;18.48;8.30;;;;;;;;;;4973273;28;20088;-81
2022/10/20 14:12:54;;;;;;;14.60;7.55;;;;;;;;;;4989568;28;20038;-81
2022/10/20 14:15:31;;;;;;;14.52;7.65;;;;;;;;;;4991263;28;20033;-81
2022/10/20 14:18:00;;;;;;;19.42;6.97;;;;;;;;;;4976445;28;20035;-81
2022/10/20 14:20:25;;;;;;;14.20;6.75;;;;;;;;;;4975836;28;20460;-81
2022/10/20 14:22:52;;;;;;;15.63;6.70;;;;;;;;;;4976007;28;20043;-82
2022/10/20 14:25:18;;;;;;;15.15;6.78;;;;;;;;;;4990358;28;20090;-81
2022/10/20 14:27:44;;;;;;;13.68;6.63;;;;;;;;;;4977335;28;20054;-81
2022/10/20 14:30:15;;;;;;;13.02;6.68;;;;;;;;;;4995683;28;20478;-81
2022/10/20 14:32:42;;;;;;;11.30;6.20;;;;;;;;;;4961474;28;20404;-81
2022/10/20 14:35:26;;;;;;;13.82;6.13;;;;;;;;;;4993252;28;20027;-82
2022/10/20 14:38:04;;;;;;;15.40;6.53;;;;;;;;;;4962600;28;20046;-82
2022/10/20 14:40:32;;;;;;;9.70;5.65;;;;;;;;;;4997515;28;20035;-81
2022/10/20 14:43:06;;;;;;;12.60;5.82;;;;;;;;;;4978832;28;20027;-81
2022/10/20 14:45:32;;;;;;;13.20;6.25;;;;;;;;;;4975930;28;20027;-82
2022/10/20 14:47:58;;;;;;;11.75;5.88;;;;;;;;;;4977246;28;20413;-82
2022/10/20 14:50:32;;;;;;;17.13;6.93;;;;;;;;;;4992707;28;20114;-81
2022/10/20 14:53:26;;;;;;;9.68;6.40;;;;;;;;;;4991522;28;20034;-81
2022/10/20 14:55:52;;;;;;;12.18;6.25;;;;;;;;;;4976835;28;20125;-81
2022/10/20 14:58:38;;;;;;;23.42;6.93;;;;;;;;;;4976132;28;20058;-81
2022/10/20 15:01:21;;;;;;;25.20;7.47;;;;;;;;;;4959970;28;20085;-81
2022/10/20 15:04:02;;;;;;;22.27;6.57;;;;;;;;;;4975604;28;20070;-81